createdAt,value
2022-11-16T00:00:59.585Z,7.20
2022-11-16T00:03:25.627Z,7.23
2022-11-16T00:06:00.028Z,7.22
2022-11-16T00:08:27.937Z,7.21
2022-11-16T00:10:53.990Z,7.20
2022-11-16T00:13:20.298Z,7.18
2022-11-16T00:15:56.621Z,7.18
2022-11-16T00:18:23.412Z,7.21
2022-11-16T00:20:50.541Z,7.27
2022-11-16T00:23:17.262Z,7.30
2022-11-16T00:28:03.125Z,7.31
2022-11-16T00:30:29.995Z,7.27
2022-11-16T00:33:01.037Z,7.28
2022-11-16T00:35:27.788Z,7.34
2022-11-16T00:37:54.452Z,7.31
2022-11-16T00:40:21.245Z,7.34
2022-11-16T00:42:49.173Z,7.37
2022-11-16T00:45:15.900Z,7.34
2022-11-16T00:47:42.599Z,7.34
2022-11-16T00:50:09.511Z,7.27
2022-11-16T00:54:05.730Z,7.25
2022-11-16T00:56:35.743Z,7.22
2022-11-16T00:59:02.454Z,7.24
2022-11-16T01:01:29.292Z,7.28
2022-11-16T01:03:56.095Z,7.32
2022-11-16T01:06:23.727Z,7.34
2022-11-16T01:08:51.380Z,7.35
2022-11-16T01:11:37.864Z,7.31
2022-11-16T01:14:07.567Z,7.31
2022-11-16T01:16:34.888Z,7.33
2022-11-16T01:19:01.824Z,7.35
2022-11-16T01:21:28.662Z,7.34
2022-11-16T01:23:57.304Z,7.38
2022-11-16T01:26:24.752Z,7.40
2022-11-16T01:28:52.481Z,7.39
2022-11-16T01:31:19.638Z,7.40
2022-11-16T01:36:35.726Z,7.45
2022-11-16T01:39:05.205Z,7.48
2022-11-16T01:41:42.186Z,7.51
2022-11-16T01:44:14.735Z,7.56
2022-11-16T01:46:52.586Z,7.56
2022-11-16T01:49:24.240Z,7.47
2022-11-16T01:52:10.504Z,7.40
2022-11-16T01:54:42.150Z,7.34
2022-11-16T01:57:14.224Z,7.34
2022-11-16T02:00:16.292Z,7.31
2022-11-16T02:03:06.266Z,7.29
2022-11-16T02:06:11.690Z,7.31
2022-11-16T02:09:21.133Z,7.37
2022-11-16T02:12:24.932Z,7.34
2022-11-16T02:15:10.362Z,7.37
2022-11-16T02:17:54.860Z,7.37
2022-11-16T02:20:49.976Z,7.32
2022-11-16T02:23:25.351Z,7.31
2022-11-16T02:26:12.352Z,7.33
2022-11-16T02:28:45.934Z,7.31
2022-11-16T02:31:16.982Z,7.29
2022-11-16T02:33:47.888Z,7.34
2022-11-16T02:36:18.942Z,7.36
2022-11-16T02:38:54.526Z,7.34
2022-11-16T02:41:24.561Z,7.36
2022-11-16T02:43:59.805Z,7.35
2022-11-16T02:46:31.332Z,7.30
2022-11-16T02:49:03.231Z,7.28
2022-11-16T02:51:33.481Z,7.36
2022-11-16T02:54:14.761Z,7.39
2022-11-16T02:57:02.365Z,7.42
2022-11-16T02:59:36.443Z,7.44
2022-11-16T03:02:21.690Z,7.42
2022-11-16T03:04:53.638Z,7.41
2022-11-16T03:07:27.375Z,7.39
2022-11-16T03:09:56.708Z,7.41
2022-11-16T03:12:28.441Z,7.45
2022-11-16T03:14:59.304Z,7.43
2022-11-16T03:17:42.326Z,7.44
2022-11-16T03:20:18.055Z,7.50
2022-11-16T03:22:47.728Z,7.50
2022-11-16T03:25:18.233Z,7.51
2022-11-16T03:27:57.967Z,7.47
2022-11-16T03:30:28.043Z,7.41
2022-11-16T03:33:10.841Z,7.40
2022-11-16T03:35:52.465Z,7.39
2022-11-16T03:38:22.348Z,7.45
2022-11-16T03:40:50.970Z,7.47
2022-11-16T03:43:20.546Z,7.44
2022-11-16T03:45:48.000Z,7.42
2022-11-16T03:48:14.772Z,7.40
2022-11-16T03:50:43.113Z,7.35
2022-11-16T03:53:09.795Z,7.31
2022-11-16T03:55:36.706Z,7.33
2022-11-16T03:58:04.358Z,7.34
2022-11-16T04:00:31.657Z,7.40
2022-11-16T04:03:02.052Z,7.46
2022-11-16T04:05:47.728Z,7.51
2022-11-16T04:08:35.227Z,7.52
2022-11-16T04:11:21.101Z,7.49
2022-11-16T04:14:09.360Z,7.50
2022-11-16T04:17:15.787Z,7.51
2022-11-16T04:20:01.519Z,7.53
2022-11-16T04:22:51.439Z,7.50
2022-11-16T04:25:23.215Z,7.54
2022-11-16T04:28:09.020Z,7.54
2022-11-16T04:30:54.766Z,7.52
2022-11-16T04:33:40.123Z,7.51
2022-11-16T04:36:26.083Z,7.50
2022-11-16T04:38:52.908Z,7.46
2022-11-16T04:41:38.463Z,7.41
2022-11-16T04:44:05.158Z,7.42
2022-11-16T04:46:52.226Z,7.42
2022-11-16T04:49:18.911Z,7.42
2022-11-16T04:51:46.763Z,7.41
2022-11-16T04:54:13.817Z,7.43
2022-11-16T04:56:40.721Z,7.44
2022-11-16T04:59:07.499Z,7.42
2022-11-16T05:01:53.254Z,7.40
2022-11-16T05:04:20.125Z,7.43
2022-11-16T05:06:47.836Z,7.43
2022-11-16T05:09:15.148Z,7.47
2022-11-16T05:11:42.166Z,7.49
2022-11-16T05:14:10.315Z,7.50
2022-11-16T05:16:37.980Z,7.48
2022-11-16T05:19:43.100Z,7.48
2022-11-16T05:22:09.839Z,7.43
2022-11-16T05:24:37.576Z,7.42
2022-11-16T05:27:11.589Z,7.43
2022-11-16T05:29:39.416Z,7.43
2022-11-16T05:32:07.324Z,7.41
2022-11-16T05:34:34.583Z,7.45
2022-11-16T05:37:01.447Z,7.48
2022-11-16T05:39:29.210Z,7.53
2022-11-16T05:41:56.735Z,7.53
2022-11-16T05:44:24.539Z,7.50
2022-11-16T05:46:52.154Z,7.47
2022-11-16T05:49:19.825Z,7.46
2022-11-16T05:51:47.636Z,7.46
2022-11-16T05:54:18.897Z,7.46
2022-11-16T05:56:46.554Z,7.43
2022-11-16T05:59:16.690Z,7.44
2022-11-16T06:01:44.553Z,7.47
2022-11-16T06:04:11.867Z,7.50
2022-11-16T06:06:54.848Z,7.52
2022-11-16T06:09:25.018Z,7.53
2022-11-16T06:11:54.990Z,7.58
2022-11-16T06:14:21.932Z,7.62
2022-11-16T06:16:48.821Z,7.64
2022-11-16T06:19:15.493Z,7.61
2022-11-16T06:21:42.371Z,7.60
2022-11-16T06:24:13.458Z,7.63
2022-11-16T06:26:41.681Z,7.67
2022-11-16T06:29:08.378Z,7.72
2022-11-16T06:31:35.583Z,7.73
2022-11-16T06:34:02.675Z,7.72
2022-11-16T06:36:29.970Z,7.70
2022-11-16T06:39:00.364Z,7.65
2022-11-16T06:41:28.158Z,7.67
2022-11-16T06:43:55.285Z,7.70
2022-11-16T06:46:25.979Z,7.73
2022-11-16T06:48:52.997Z,7.74
2022-11-16T06:51:19.729Z,7.72
2022-11-16T06:53:46.792Z,7.71
2022-11-16T06:56:15.810Z,7.71
2022-11-16T06:58:47.122Z,7.68
2022-11-16T07:01:14.202Z,7.70
2022-11-16T07:03:42.217Z,7.71
2022-11-16T07:06:14.517Z,7.75
2022-11-16T07:08:42.838Z,7.74
2022-11-16T07:11:10.907Z,7.73
2022-11-16T07:13:39.060Z,7.75
2022-11-16T07:16:11.483Z,7.71
2022-11-16T07:18:41.858Z,7.71
2022-11-16T07:21:11.539Z,7.72
2022-11-16T07:23:38.745Z,7.73
2022-11-16T07:26:07.691Z,7.78
2022-11-16T07:29:01.494Z,7.80
2022-11-16T07:31:28.557Z,7.80
2022-11-16T07:34:21.258Z,7.79
2022-11-16T07:37:04.121Z,7.75
2022-11-16T07:39:30.857Z,7.74
2022-11-16T07:41:57.782Z,7.75
2022-11-16T07:44:28.100Z,7.77
2022-11-16T07:47:06.027Z,7.82
2022-11-16T07:49:33.502Z,7.80
2022-11-16T07:52:08.880Z,7.82
2022-11-16T07:54:42.684Z,7.85
2022-11-16T07:57:09.426Z,7.83
2022-11-16T07:59:37.106Z,7.78
2022-11-16T08:02:04.966Z,7.73
2022-11-16T08:04:32.355Z,7.79
2022-11-16T08:06:59.344Z,7.81
2022-11-16T08:09:26.490Z,7.78
2022-11-16T08:11:53.426Z,7.78
2022-11-16T08:14:20.577Z,7.82
2022-11-16T08:16:48.567Z,7.84
2022-11-16T08:19:15.354Z,7.81
2022-11-16T08:21:42.272Z,7.84
2022-11-16T08:24:09.420Z,7.89
2022-11-16T08:26:40.013Z,7.89
2022-11-16T08:29:09.515Z,7.90
2022-11-16T08:31:37.321Z,7.86
2022-11-16T08:34:14.275Z,7.84
2022-11-16T08:36:43.643Z,7.79
2022-11-16T08:39:10.398Z,7.80
2022-11-16T08:41:37.859Z,7.75
2022-11-16T08:44:06.078Z,7.80
2022-11-16T08:46:34.639Z,7.84
2022-11-16T08:49:09.048Z,7.87
2022-11-16T08:51:35.815Z,7.90
2022-11-16T08:54:05.359Z,7.91
2022-11-16T08:56:33.499Z,7.84
2022-11-16T08:59:03.514Z,7.81
2022-11-16T09:01:31.608Z,7.82
2022-11-16T09:04:00.131Z,7.81
2022-11-16T09:06:28.363Z,7.80
2022-11-16T09:08:55.531Z,7.86
2022-11-16T09:11:23.777Z,7.87
2022-11-16T09:13:53.925Z,7.89
2022-11-16T09:16:23.551Z,7.85
2022-11-16T09:18:51.624Z,7.82
2022-11-16T09:21:24.019Z,7.82
2022-11-16T09:23:51.028Z,7.77
2022-11-16T09:26:21.219Z,7.73
2022-11-16T09:28:55.260Z,7.76
2022-11-16T09:31:23.698Z,7.73
2022-11-16T09:33:51.144Z,7.69
2022-11-16T09:36:18.050Z,7.65
2022-11-16T09:39:19.118Z,7.64
2022-11-16T09:42:03.621Z,7.65
2022-11-16T09:44:57.661Z,7.68
2022-11-16T09:47:35.896Z,7.73
2022-11-16T09:50:06.098Z,7.78
2022-11-16T09:52:44.514Z,7.82
2022-11-16T09:55:36.404Z,7.82
2022-11-16T09:58:12.015Z,7.81
2022-11-16T10:00:44.377Z,7.84
2022-11-16T10:03:15.788Z,7.87
2022-11-16T10:06:05.576Z,7.90
2022-11-16T10:08:48.072Z,7.94
2022-11-16T10:11:43.902Z,7.93
2022-11-16T10:14:31.995Z,7.96
2022-11-16T10:17:17.028Z,7.99
2022-11-16T10:20:11.360Z,8.02
2022-11-16T10:22:54.607Z,7.96
2022-11-16T10:25:23.984Z,7.94
2022-11-16T10:28:02.836Z,7.95
2022-11-16T10:30:34.738Z,7.97
2022-11-16T10:33:10.904Z,8.02
2022-11-16T10:35:45.596Z,8.10
2022-11-16T10:38:24.028Z,8.13
2022-11-16T10:40:55.492Z,8.13
2022-11-16T10:43:29.098Z,8.09
2022-11-16T10:46:14.414Z,8.09
2022-11-16T10:49:05.889Z,8.07
2022-11-16T10:51:32.704Z,8.06
2022-11-16T10:53:59.514Z,8.06
2022-11-16T10:56:30.250Z,8.06
2022-11-16T10:58:57.217Z,8.08
2022-11-16T11:01:38.880Z,8.04
2022-11-16T11:04:28.391Z,8.00
2022-11-16T11:06:56.183Z,8.03
2022-11-16T11:09:23.214Z,8.02
2022-11-16T11:12:31.810Z,7.93
2022-11-16T11:15:08.026Z,7.92
2022-11-16T11:17:36.348Z,7.93
2022-11-16T11:20:15.263Z,7.93
2022-11-16T11:22:50.165Z,7.91
2022-11-16T11:25:24.698Z,7.91
2022-11-16T11:28:23.852Z,7.95
2022-11-16T11:30:59.538Z,7.95
2022-11-16T11:33:29.937Z,7.96
2022-11-16T11:36:10.671Z,7.96
2022-11-16T11:38:56.889Z,7.99
2022-11-16T11:41:24.378Z,8.00
2022-11-16T11:44:03.414Z,7.98
2022-11-16T11:47:18.235Z,7.89
2022-11-16T11:49:33.801Z,7.87
2022-11-16T11:52:17.366Z,7.90
2022-11-16T11:54:49.532Z,7.95
2022-11-16T11:57:23.226Z,7.99
2022-11-16T11:59:52.875Z,8.03
2022-11-16T12:02:42.682Z,8.04
2022-11-16T12:05:52.004Z,8.05
2022-11-16T12:08:30.596Z,8.00
2022-11-16T12:11:12.479Z,7.87
2022-11-16T12:13:48.339Z,7.83
2022-11-16T12:16:44.282Z,7.77
2022-11-16T12:19:41.275Z,7.68
2022-11-16T12:22:28.112Z,7.59
2022-11-16T12:25:06.825Z,7.52
2022-11-16T12:27:50.591Z,7.43
2022-11-16T12:30:23.687Z,7.26
2022-11-16T12:33:28.247Z,7.14
2022-11-16T12:36:09.896Z,7.04
2022-11-16T12:38:49.795Z,6.96
2022-11-16T12:41:53.705Z,6.86
2022-11-16T12:44:36.795Z,6.76
2022-11-16T12:47:31.996Z,6.57
2022-11-16T12:50:17.548Z,6.50
2022-11-16T12:53:00.117Z,6.54
2022-11-16T12:55:37.566Z,6.53
2022-11-16T12:58:07.312Z,6.51
2022-11-16T13:01:12.878Z,6.50
2022-11-16T13:04:01.468Z,6.42
2022-11-16T13:06:40.010Z,6.41
2022-11-16T13:09:21.997Z,6.45
2022-11-16T13:11:57.612Z,6.48
2022-11-16T13:14:39.134Z,6.38
2022-11-16T13:17:07.609Z,6.28
2022-11-16T13:19:42.143Z,6.22
2022-11-16T13:22:19.462Z,6.20
2022-11-16T13:25:04.339Z,6.14
2022-11-16T13:27:48.261Z,6.00
2022-11-16T13:30:32.990Z,5.94
2022-11-16T13:33:08.883Z,5.90
2022-11-16T13:35:37.879Z,5.88
2022-11-16T13:38:08.915Z,5.86
2022-11-16T13:40:35.811Z,5.81
2022-11-16T13:43:11.272Z,5.78
2022-11-16T13:45:50.301Z,5.79
2022-11-16T13:48:22.159Z,5.76
2022-11-16T13:50:53.607Z,5.67
2022-11-16T13:56:16.163Z,5.67
2022-11-16T13:58:49.832Z,5.61
2022-11-16T14:01:18.221Z,5.50
2022-11-16T14:03:51.977Z,5.46
2022-11-16T14:06:19.154Z,5.43
2022-11-16T14:08:49.242Z,5.44
2022-11-16T14:11:29.192Z,5.39
2022-11-16T14:13:56.786Z,5.40
2022-11-16T14:16:23.485Z,5.39
2022-11-16T14:18:51.704Z,5.34
2022-11-16T14:21:39.800Z,5.30
2022-11-16T14:24:25.279Z,5.34
2022-11-16T14:27:10.537Z,5.31
2022-11-16T14:30:03.413Z,5.27
2022-11-16T14:32:34.928Z,5.30
2022-11-16T14:35:07.194Z,5.30
2022-11-16T14:37:38.879Z,5.27
2022-11-16T14:40:18.753Z,5.16
2022-11-16T14:43:17.239Z,5.18
2022-11-16T14:45:49.276Z,5.23
2022-11-16T14:48:19.621Z,5.26
2022-11-16T14:51:06.519Z,5.28
2022-11-16T14:53:37.500Z,5.27
2022-11-16T14:56:12.817Z,5.24
2022-11-16T14:58:40.355Z,5.18
2022-11-16T15:01:14.739Z,5.08
2022-11-16T15:03:53.093Z,5.06
2022-11-16T15:06:20.618Z,5.10
2022-11-16T15:08:57.340Z,5.12
2022-11-16T15:11:49.256Z,5.14
2022-11-16T15:14:27.410Z,5.18
2022-11-16T15:16:57.113Z,5.19
2022-11-16T15:19:25.492Z,5.21
2022-11-16T15:21:58.373Z,5.19
2022-11-16T15:24:30.928Z,5.14
2022-11-16T15:27:09.087Z,5.09
2022-11-16T15:29:36.376Z,5.13
2022-11-16T15:32:03.586Z,5.17
2022-11-16T15:34:34.668Z,5.21
2022-11-16T15:37:01.655Z,5.27
2022-11-16T15:39:33.576Z,5.32
2022-11-16T15:42:04.043Z,5.37
2022-11-16T15:44:33.249Z,5.39
2022-11-16T15:47:00.831Z,5.39
2022-11-16T15:49:35.441Z,5.35
2022-11-16T15:52:02.545Z,5.35
2022-11-16T15:54:53.767Z,5.31
2022-11-16T15:57:22.680Z,5.31
2022-11-16T15:59:56.851Z,5.34
2022-11-16T16:02:30.332Z,5.36
2022-11-16T16:04:57.491Z,5.37
2022-11-16T16:07:38.031Z,5.35
2022-11-16T16:10:19.647Z,5.34
2022-11-16T16:12:58.574Z,5.30
2022-11-16T16:15:26.546Z,5.29
2022-11-16T16:17:55.548Z,5.24
2022-11-16T16:20:25.489Z,5.24
2022-11-16T16:22:52.751Z,5.24
2022-11-16T16:25:50.311Z,5.29
2022-11-16T16:28:17.610Z,5.32
2022-11-16T16:30:44.418Z,5.36
2022-11-16T16:33:19.672Z,5.40
2022-11-16T16:35:49.948Z,5.39
2022-11-16T16:38:16.829Z,5.36
2022-11-16T16:40:43.692Z,5.35
2022-11-16T16:43:10.500Z,5.35
2022-11-16T16:45:41.904Z,5.34
2022-11-16T16:48:09.609Z,5.41
2022-11-16T16:50:37.356Z,5.45
2022-11-16T16:53:07.164Z,5.46
2022-11-16T16:55:37.465Z,5.45
2022-11-16T16:58:08.572Z,5.43
2022-11-16T17:00:35.340Z,5.43
2022-11-16T17:03:02.052Z,5.38
2022-11-16T17:05:30.766Z,5.33
2022-11-16T17:07:57.407Z,5.32
2022-11-16T17:10:24.364Z,5.33
2022-11-16T17:12:55.136Z,5.35
2022-11-16T17:15:22.262Z,5.39
2022-11-16T17:17:49.086Z,5.40
2022-11-16T17:20:17.047Z,5.43
2022-11-16T17:22:43.829Z,5.44
2022-11-16T17:25:10.789Z,5.45
2022-11-16T17:27:37.882Z,5.43
2022-11-16T17:30:05.261Z,5.46
2022-11-16T17:32:32.421Z,5.45
2022-11-16T17:34:59.177Z,5.46
2022-11-16T17:37:25.880Z,5.41
2022-11-16T17:39:52.503Z,5.40
2022-11-16T17:42:19.185Z,5.35
2022-11-16T17:44:45.812Z,5.35
2022-11-16T17:47:12.584Z,5.35
2022-11-16T17:49:39.256Z,5.35
2022-11-16T17:52:06.510Z,5.31
2022-11-16T17:54:33.164Z,5.31
2022-11-16T17:57:00.012Z,5.36
2022-11-16T17:59:29.802Z,5.42
2022-11-16T18:01:58.149Z,5.44
2022-11-16T18:04:25.455Z,5.43
2022-11-16T18:06:52.690Z,5.42
2022-11-16T18:09:19.444Z,5.38
2022-11-16T18:11:46.188Z,5.38
2022-11-16T18:14:13.273Z,5.39
2022-11-16T18:16:43.587Z,5.41
2022-11-16T18:19:17.364Z,5.43
2022-11-16T18:21:45.353Z,5.43
2022-11-16T18:24:12.839Z,5.46
2022-11-16T18:26:40.763Z,5.44
2022-11-16T18:29:09.571Z,5.43
2022-11-16T18:31:36.392Z,5.38
2022-11-16T18:34:03.177Z,5.36
2022-11-16T18:36:29.926Z,5.31
2022-11-16T18:38:56.812Z,5.27
2022-11-16T18:41:26.523Z,5.29
2022-11-16T18:43:59.361Z,5.31
2022-11-16T18:46:28.359Z,5.32
2022-11-16T18:48:56.062Z,5.30
2022-11-16T18:51:26.263Z,5.30
2022-11-16T18:53:53.281Z,5.32
2022-11-16T18:56:21.234Z,5.33
2022-11-16T18:58:51.332Z,5.31
2022-11-16T19:01:22.220Z,5.29
2022-11-16T19:03:50.332Z,5.30
2022-11-16T19:06:18.290Z,5.32
2022-11-16T19:08:53.691Z,5.36
2022-11-16T19:11:22.937Z,5.37
2022-11-16T19:14:01.141Z,5.41
2022-11-16T19:16:28.191Z,5.41
2022-11-16T19:18:55.193Z,5.42
2022-11-16T19:21:24.757Z,5.38
2022-11-16T19:23:53.672Z,5.35
2022-11-16T19:26:22.956Z,5.34
2022-11-16T19:28:51.844Z,5.33
2022-11-16T19:31:27.436Z,5.30
2022-11-16T19:33:55.963Z,5.22
2022-11-16T19:36:23.759Z,5.17
2022-11-16T19:38:51.587Z,5.22
2022-11-16T19:41:23.279Z,5.21
2022-11-16T19:44:00.270Z,5.20
2022-11-16T19:46:32.598Z,5.20
2022-11-16T19:49:00.481Z,5.20
2022-11-16T19:51:32.693Z,5.19
2022-11-16T19:54:01.109Z,5.15
2022-11-16T19:56:28.877Z,5.12
2022-11-16T19:58:56.040Z,5.11
2022-11-16T20:01:29.433Z,5.13
2022-11-16T20:03:58.471Z,5.13
2022-11-16T20:06:29.339Z,5.16
2022-11-16T20:09:01.418Z,5.15
2022-11-16T20:11:33.808Z,5.16
2022-11-16T20:14:01.724Z,5.17
2022-11-16T20:16:38.317Z,5.22
2022-11-16T20:19:07.094Z,5.24
2022-11-16T20:21:37.368Z,5.23
2022-11-16T20:24:07.300Z,5.20
2022-11-16T20:26:35.422Z,5.20
2022-11-16T20:29:02.810Z,5.21
2022-11-16T20:31:31.235Z,5.18
2022-11-16T20:34:04.301Z,5.13
2022-11-16T20:36:33.571Z,5.15
2022-11-16T20:39:01.194Z,5.17
2022-11-16T20:41:30.585Z,5.18
2022-11-16T20:44:01.844Z,5.17
2022-11-16T20:46:31.066Z,5.22
2022-11-16T20:49:02.902Z,5.23
2022-11-16T20:51:30.359Z,5.22
2022-11-16T20:53:57.776Z,5.25
2022-11-16T20:56:25.013Z,5.26
2022-11-16T20:58:51.951Z,5.26
2022-11-16T21:01:32.227Z,5.23
2022-11-16T21:04:01.582Z,5.24
2022-11-16T21:06:29.057Z,5.25
2022-11-16T21:08:56.478Z,5.29
2022-11-16T21:11:26.110Z,5.33
2022-11-16T21:14:11.511Z,5.35
2022-11-16T21:16:38.335Z,5.30
2022-11-16T21:19:05.668Z,5.26
2022-11-16T21:21:32.851Z,5.21
2022-11-16T21:23:59.833Z,5.20
2022-11-16T21:26:31.385Z,5.20
2022-11-16T21:28:59.509Z,5.20
2022-11-16T21:31:33.675Z,5.15
2022-11-16T21:34:01.201Z,5.13
2022-11-16T21:36:30.073Z,5.14
2022-11-16T21:38:58.186Z,5.17
2022-11-16T21:41:25.957Z,5.22
2022-11-16T21:43:53.200Z,5.22
2022-11-16T21:46:23.080Z,5.22
2022-11-16T21:48:51.305Z,5.22
2022-11-16T21:51:19.635Z,5.24
2022-11-16T21:53:46.830Z,5.27
2022-11-16T21:56:18.943Z,5.30
2022-11-16T21:58:46.253Z,5.31
2022-11-16T22:01:16.151Z,5.30
2022-11-16T22:03:44.979Z,5.27
2022-11-16T22:06:34.290Z,5.24
2022-11-16T22:09:01.371Z,5.25
2022-11-16T22:11:28.284Z,5.26
2022-11-16T22:13:55.170Z,5.27
2022-11-16T22:16:24.634Z,5.28
2022-11-16T22:18:51.409Z,5.30
2022-11-16T22:21:18.471Z,5.35
2022-11-16T22:23:45.210Z,5.41
2022-11-16T22:26:13.832Z,5.44
2022-11-16T22:28:40.987Z,5.42
2022-11-16T22:31:21.203Z,5.44
2022-11-16T22:33:53.012Z,5.42
2022-11-16T22:36:19.807Z,5.41
2022-11-16T22:38:46.599Z,5.40
2022-11-16T22:41:13.401Z,5.38
2022-11-16T22:43:40.575Z,5.36
2022-11-16T22:46:07.528Z,5.37
2022-11-16T22:48:36.790Z,5.34
2022-11-16T22:51:19.538Z,5.33
2022-11-16T22:53:46.796Z,5.33
2022-11-16T22:56:14.169Z,5.32
2022-11-16T22:58:41.207Z,5.32
2022-11-16T23:01:09.264Z,5.31
2022-11-16T23:03:36.960Z,5.30
2022-11-16T23:06:05.611Z,5.28
2022-11-16T23:08:33.314Z,5.27
2022-11-16T23:11:32.408Z,5.26
2022-11-16T23:14:19.919Z,5.31
2022-11-16T23:16:47.506Z,5.34
2022-11-16T23:19:34.792Z,5.37
2022-11-16T23:22:20.266Z,5.36
2022-11-16T23:25:06.151Z,5.38
2022-11-16T23:27:58.598Z,5.32
2022-11-16T23:30:26.676Z,5.27
2022-11-16T23:32:53.608Z,5.22
2022-11-16T23:35:21.026Z,5.18
2022-11-16T23:37:51.711Z,5.15
2022-11-16T23:40:18.507Z,5.15
2022-11-16T23:43:03.973Z,5.14
2022-11-16T23:45:30.866Z,5.08
2022-11-16T23:47:57.602Z,5.07
2022-11-16T23:50:24.427Z,5.01
2022-11-16T23:52:51.079Z,4.99
2022-11-16T23:55:17.879Z,5.00
2022-11-16T23:57:44.659Z,4.99
